Time;durP1;ratioP1;P1;durP2;ratioP2;P2;SDS_P1;SDS_P2;PMS_P1;PMS_P2;Temp;Humidity;BMP_temperature;BMP_pressure;BME280_temperature;BME280_humidity;BME280_pressure;Samples;Min_cycle;Max_cycle;Signal;HPM_P1;HPM_P2
2022/09/16 00:00:42;;;;;;;13.52;2.22;;;;;;;;;;5012867;28;20158;-63
2022/09/16 00:03:08;;;;;;;14.38;2.20;;;;;;;;;;5000060;28;20034;-63
2022/09/16 00:05:36;;;;;;;16.33;2.30;;;;;;;;;;5009156;28;20026;-63
2022/09/16 00:08:02;;;;;;;10.23;1.88;;;;;;;;;;4993579;28;20121;-63
2022/09/16 00:10:29;;;;;;;8.80;1.92;;;;;;;;;;5000045;28;20121;-63
2022/09/16 00:12:56;;;;;;;16.73;2.50;;;;;;;;;;5001596;28;20034;-63
2022/09/16 00:15:22;;;;;;;12.02;2.00;;;;;;;;;;5007526;28;20030;-63
2022/09/16 00:17:48;;;;;;;14.52;2.03;;;;;;;;;;4995969;28;20039;-63
2022/09/16 00:20:14;;;;;;;22.08;2.70;;;;;;;;;;5022325;28;20080;-63
2022/09/16 00:22:40;;;;;;;16.58;2.40;;;;;;;;;;5004016;28;20441;-63
2022/09/16 00:25:06;;;;;;;8.25;2.22;;;;;;;;;;5004687;28;20052;-63
2022/09/16 00:27:33;;;;;;;12.25;2.20;;;;;;;;;;4997072;28;20113;-63
2022/09/16 00:29:59;;;;;;;10.93;2.03;;;;;;;;;;5008788;28;20018;-63
2022/09/16 00:32:25;;;;;;;11.63;2.50;;;;;;;;;;4999129;28;20029;-63
2022/09/16 00:34:51;;;;;;;14.35;2.70;;;;;;;;;;5019028;28;20034;-63
2022/09/16 00:37:17;;;;;;;12.90;2.10;;;;;;;;;;4999221;28;20042;-63
2022/09/16 00:39:44;;;;;;;6.50;2.08;;;;;;;;;;5008444;28;20542;-63
2022/09/16 00:42:11;;;;;;;9.63;2.15;;;;;;;;;;4996305;28;20053;-63
2022/09/16 00:44:52;;;;;;;13.13;2.47;;;;;;;;;;5004918;28;20470;-63
2022/09/16 00:47:37;;;;;;;12.68;2.30;;;;;;;;;;5005969;28;20117;-63
2022/09/16 00:50:08;;;;;;;10.57;2.42;;;;;;;;;;5005034;28;20502;-63
2022/09/16 00:52:34;;;;;;;13.63;1.88;;;;;;;;;;5004924;28;20475;-63
2022/09/16 00:55:02;;;;;;;11.73;1.92;;;;;;;;;;5002782;28;20037;-63
2022/09/16 00:57:29;;;;;;;13.55;2.42;;;;;;;;;;4997941;28;20121;-63
2022/09/16 00:59:55;;;;;;;13.20;2.45;;;;;;;;;;5008578;28;20030;-63
2022/09/16 01:02:22;;;;;;;13.93;1.88;;;;;;;;;;5010280;28;20034;-63
2022/09/16 01:04:50;;;;;;;9.82;2.08;;;;;;;;;;5003192;28;20014;-63
2022/09/16 01:07:18;;;;;;;10.48;2.15;;;;;;;;;;5004688;28;20398;-63
2022/09/16 01:09:44;;;;;;;12.45;2.15;;;;;;;;;;4995449;28;20528;-63
2022/09/16 01:12:10;;;;;;;9.20;2.50;;;;;;;;;;5008287;28;20026;-63
2022/09/16 01:14:55;;;;;;;8.02;1.92;;;;;;;;;;5000014;28;20029;-63
2022/09/16 01:17:27;;;;;;;10.82;1.95;;;;;;;;;;5018187;28;20057;-63
2022/09/16 01:19:56;;;;;;;9.18;2.10;;;;;;;;;;4995441;28;20034;-63
2022/09/16 01:22:39;;;;;;;9.57;1.50;;;;;;;;;;5006805;28;20026;-63
2022/09/16 01:25:12;;;;;;;10.45;2.10;;;;;;;;;;5002598;28;20386;-63
2022/09/16 01:27:53;;;;;;;14.88;2.88;;;;;;;;;;4996952;28;20399;-63
2022/09/16 01:30:28;;;;;;;16.55;2.10;;;;;;;;;;4992676;28;20018;-63
2022/09/16 01:33:05;;;;;;;7.78;2.30;;;;;;;;;;5014746;28;20084;-63
2022/09/16 01:35:51;;;;;;;13.57;2.75;;;;;;;;;;4997678;28;20033;-63
2022/09/16 01:38:20;;;;;;;14.35;2.10;;;;;;;;;;4992564;28;20031;-63
2022/09/16 01:40:46;;;;;;;9.85;1.65;;;;;;;;;;5007954;28;20026;-63
2022/09/16 01:43:17;;;;;;;8.88;2.30;;;;;;;;;;5000459;28;20164;-63
2022/09/16 01:45:51;;;;;;;11.38;1.73;;;;;;;;;;5007620;28;20045;-63
2022/09/16 01:48:18;;;;;;;8.65;1.83;;;;;;;;;;5000894;28;20030;-63
2022/09/16 01:50:49;;;;;;;11.00;1.80;;;;;;;;;;5012735;28;20018;-63
2022/09/16 01:53:25;;;;;;;10.70;2.00;;;;;;;;;;5007155;28;20026;-63
2022/09/16 01:55:55;;;;;;;7.57;1.45;;;;;;;;;;5003680;28;20042;-63
2022/09/16 01:58:31;;;;;;;11.00;2.75;;;;;;;;;;4999869;28;20043;-63
2022/09/16 02:01:02;;;;;;;9.65;2.10;;;;;;;;;;5005995;28;20125;-63
2022/09/16 02:03:30;;;;;;;9.45;1.95;;;;;;;;;;5010155;28;20500;-63
2022/09/16 02:06:08;;;;;;;11.48;2.53;;;;;;;;;;5003294;28;20105;-63
2022/09/16 02:08:39;;;;;;;10.77;2.45;;;;;;;;;;5006928;28;20014;-63
2022/09/16 02:11:07;;;;;;;4.45;1.45;;;;;;;;;;5004647;28;20077;-63
2022/09/16 02:13:39;;;;;;;9.00;2.05;;;;;;;;;;5003352;28;20034;-63
2022/09/16 02:16:06;;;;;;;;;;;;;;;;;;5004898;28;20054;-63
2022/09/16 02:18:34;;;;;;;11.18;2.50;;;;;;;;;;5008892;28;19966;-63
2022/09/16 02:21:02;;;;;;;9.00;2.00;;;;;;;;;;5007957;28;20071;-63
2022/09/16 02:23:38;;;;;;;9.25;1.80;;;;;;;;;;5006350;28;20033;-63
2022/09/16 02:26:06;;;;;;;8.20;2.25;;;;;;;;;;5004853;28;20041;-63
2022/09/16 02:28:37;;;;;;;6.47;2.03;;;;;;;;;;5003282;28;20023;-63
2022/09/16 02:31:06;;;;;;;11.52;1.90;;;;;;;;;;5003399;28;20465;-63
2022/09/16 02:33:52;;;;;;;11.52;2.25;;;;;;;;;;5006277;28;20026;-63
2022/09/16 02:36:20;;;;;;;10.68;2.17;;;;;;;;;;5002779;28;20482;-63
2022/09/16 02:38:48;;;;;;;8.93;2.05;;;;;;;;;;5003736;28;20064;-63
2022/09/16 02:41:14;;;;;;;16.42;2.30;;;;;;;;;;5002739;28;20537;-63
2022/09/16 02:43:45;;;;;;;7.95;2.40;;;;;;;;;;5008689;28;20053;-63
2022/09/16 02:46:29;;;;;;;12.63;2.40;;;;;;;;;;5009194;28;20029;-63
2022/09/16 02:49:09;;;;;;;10.10;1.88;;;;;;;;;;5006711;28;20022;-63
2022/09/16 02:51:38;;;;;;;13.60;2.53;;;;;;;;;;5007769;28;20040;-63
2022/09/16 02:54:18;;;;;;;11.73;2.10;;;;;;;;;;4997707;28;20026;-63
2022/09/16 02:56:45;;;;;;;10.98;2.08;;;;;;;;;;5008534;28;20052;-63
2022/09/16 02:59:12;;;;;;;7.90;2.17;;;;;;;;;;5003825;28;20355;-63
2022/09/16 03:01:43;;;;;;;6.70;2.10;;;;;;;;;;5013433;28;20033;-63
2022/09/16 03:04:09;;;;;;;8.20;1.95;;;;;;;;;;5014921;28;20025;-63
2022/09/16 03:06:35;;;;;;;11.40;2.67;;;;;;;;;;5009497;28;20022;-63
2022/09/16 03:09:03;;;;;;;5.72;2.00;;;;;;;;;;5002103;28;20029;-63
2022/09/16 03:11:49;;;;;;;12.60;2.35;;;;;;;;;;5010164;28;20079;-63
2022/09/16 03:14:21;;;;;;;8.77;1.65;;;;;;;;;;4968762;28;20530;-63
2022/09/16 03:17:05;;;;;;;14.83;2.50;;;;;;;;;;4966640;28;20082;-63
2022/09/16 03:19:36;;;;;;;13.63;2.22;;;;;;;;;;4970497;28;20031;-63
2022/09/16 03:22:09;;;;;;;10.18;1.95;;;;;;;;;;4970489;28;20031;-63
2022/09/16 03:25:02;;;;;;;15.13;2.58;;;;;;;;;;4967793;28;20065;-63
2022/09/16 03:27:36;;;;;;;13.37;2.43;;;;;;;;;;4961783;28;20070;-63
2022/09/16 03:30:06;;;;;;;12.00;2.40;;;;;;;;;;4970003;28;20069;-63
2022/09/16 03:32:32;;;;;;;13.52;2.45;;;;;;;;;;4970959;28;20130;-63
2022/09/16 03:35:07;;;;;;;12.60;2.17;;;;;;;;;;4971773;28;20089;-63
2022/09/16 03:37:35;;;;;;;9.43;2.58;;;;;;;;;;4967242;28;20077;-63
2022/09/16 03:40:19;;;;;;;11.60;2.10;;;;;;;;;;4972008;28;20073;-63
2022/09/16 03:42:45;;;;;;;8.30;2.40;;;;;;;;;;4953998;28;20554;-63
2022/09/16 03:45:16;;;;;;;17.52;2.63;;;;;;;;;;4963193;28;20046;-63
2022/09/16 03:47:43;;;;;;;19.25;3.97;;;;;;;;;;4971386;28;20138;-63
2022/09/16 03:50:09;;;;;;;16.15;3.45;;;;;;;;;;4971700;28;20034;-63
2022/09/16 03:52:35;;;;;;;7.82;2.17;;;;;;;;;;5011728;28;20030;-63
2022/09/16 03:55:01;;;;;;;20.60;2.50;;;;;;;;;;5006106;28;20421;-63
2022/09/16 03:57:29;;;;;;;18.45;2.30;;;;;;;;;;5003271;28;20084;-63
2022/09/16 03:59:55;;;;;;;13.77;2.78;;;;;;;;;;5027340;28;20033;-63
2022/09/16 04:02:21;;;;;;;9.55;2.20;;;;;;;;;;5006707;28;20038;-63
2022/09/16 04:04:47;;;;;;;10.65;2.25;;;;;;;;;;5008186;28;20109;-63
2022/09/16 04:07:13;;;;;;;17.50;3.03;;;;;;;;;;5001498;28;20061;-63
2022/09/16 04:09:40;;;;;;;10.30;2.00;;;;;;;;;;5002718;28;20042;-63
2022/09/16 04:12:06;;;;;;;7.10;2.72;;;;;;;;;;5009663;28;20038;-63
2022/09/16 04:14:32;;;;;;;8.10;2.45;;;;;;;;;;4996948;28;20145;-63
2022/09/16 04:16:59;;;;;;;9.48;3.22;;;;;;;;;;5010813;28;20081;-63
2022/09/16 04:19:25;;;;;;;19.42;3.10;;;;;;;;;;5008389;28;20025;-63
2022/09/16 04:21:51;;;;;;;15.13;2.75;;;;;;;;;;5003122;28;20474;-62
2022/09/16 04:24:17;;;;;;;8.65;2.13;;;;;;;;;;5012721;28;20029;-62
2022/09/16 04:26:43;;;;;;;16.02;2.80;;;;;;;;;;5003431;28;20397;-62
2022/09/16 04:29:09;;;;;;;7.25;2.50;;;;;;;;;;5004754;28;20026;-63
2022/09/16 04:31:36;;;;;;;14.80;2.30;;;;;;;;;;5006688;28;20116;-63
2022/09/16 04:34:03;;;;;;;17.88;2.40;;;;;;;;;;4999254;28;20053;-63
2022/09/16 04:36:29;;;;;;;13.70;2.20;;;;;;;;;;5003166;28;20028;-63
2022/09/16 04:38:55;;;;;;;20.00;2.42;;;;;;;;;;5008558;28;20505;-63
2022/09/16 04:41:22;;;;;;;11.05;2.17;;;;;;;;;;5002734;28;20044;-63
2022/09/16 04:43:52;;;;;;;11.30;2.42;;;;;;;;;;5006969;28;20030;-63
2022/09/16 04:46:19;;;;;;;15.68;2.20;;;;;;;;;;5003611;28;20025;-63
2022/09/16 04:48:48;;;;;;;12.10;2.40;;;;;;;;;;5003542;28;20030;-63
2022/09/16 04:51:14;;;;;;;10.13;2.55;;;;;;;;;;5008074;28;20057;-63
2022/09/16 04:53:42;;;;;;;10.73;1.80;;;;;;;;;;5011619;28;20083;-63
2022/09/16 04:56:14;;;;;;;12.00;2.45;;;;;;;;;;5006876;28;20042;-63
2022/09/16 04:58:40;;;;;;;9.63;2.53;;;;;;;;;;5008652;28;20034;-63
2022/09/16 05:01:14;;;;;;;5.78;1.70;;;;;;;;;;5010248;28;20069;-63
2022/09/16 05:03:41;;;;;;;10.80;2.22;;;;;;;;;;5002271;28;20113;-63
2022/09/16 05:06:11;;;;;;;12.85;2.08;;;;;;;;;;5011690;28;20402;-63
2022/09/16 05:08:38;;;;;;;19.10;2.50;;;;;;;;;;5009500;28;20022;-63
2022/09/16 05:11:05;;;;;;;15.32;1.98;;;;;;;;;;5010984;28;20046;-65
2022/09/16 05:13:31;;;;;;;10.43;2.78;;;;;;;;;;5008983;28;20104;-62
2022/09/16 05:16:01;;;;;;;9.48;1.95;;;;;;;;;;5011190;28;20029;-62
2022/09/16 05:18:27;;;;;;;18.15;2.08;;;;;;;;;;5009757;28;20095;-62
2022/09/16 05:20:57;;;;;;;9.10;2.15;;;;;;;;;;5009445;28;20104;-63
2022/09/16 05:23:23;;;;;;;15.07;2.15;;;;;;;;;;5002235;28;20032;-63
2022/09/16 05:25:49;;;;;;;16.65;2.75;;;;;;;;;;4996200;28;20061;-63
2022/09/16 05:28:15;;;;;;;8.85;2.20;;;;;;;;;;4997762;28;20539;-63
2022/09/16 05:30:41;;;;;;;17.27;2.25;;;;;;;;;;5009064;28;20029;-63
2022/09/16 05:33:07;;;;;;;9.63;1.88;;;;;;;;;;5004716;28;20076;-64
2022/09/16 05:35:33;;;;;;;9.57;2.05;;;;;;;;;;5006513;28;20061;-64
2022/09/16 05:38:00;;;;;;;9.93;1.80;;;;;;;;;;5011256;28;20034;-63
2022/09/16 05:40:27;;;;;;;8.38;1.63;;;;;;;;;;5010546;28;20060;-63
2022/09/16 05:42:54;;;;;;;8.45;2.05;;;;;;;;;;5013140;28;20030;-63
2022/09/16 05:45:20;;;;;;;9.93;1.73;;;;;;;;;;5012540;28;20117;-63
2022/09/16 05:47:50;;;;;;;10.00;2.20;;;;;;;;;;5005685;28;20034;-63
2022/09/16 05:50:16;;;;;;;13.60;1.83;;;;;;;;;;5018325;28;20117;-63
2022/09/16 05:52:42;;;;;;;11.50;1.98;;;;;;;;;;5015016;28;20018;-64
2022/09/16 05:55:08;;;;;;;8.75;1.83;;;;;;;;;;5011392;28;20033;-63
2022/09/16 05:57:35;;;;;;;8.18;1.65;;;;;;;;;;5014438;28;20025;-63
2022/09/16 06:00:01;;;;;;;6.80;1.75;;;;;;;;;;5013899;28;20474;-63
2022/09/16 06:02:27;;;;;;;10.38;1.90;;;;;;;;;;5014534;28;20544;-63
2022/09/16 06:04:53;;;;;;;4.10;1.30;;;;;;;;;;5015211;28;20022;-63
2022/09/16 06:07:19;;;;;;;5.57;1.90;;;;;;;;;;5014639;28;20026;-66
2022/09/16 06:09:46;;;;;;;11.40;1.60;;;;;;;;;;5014687;28;20042;-63
2022/09/16 06:12:12;;;;;;;14.40;1.60;;;;;;;;;;5014559;28;20087;-63
2022/09/16 06:14:38;;;;;;;13.63;1.83;;;;;;;;;;5014773;28;20024;-63
2022/09/16 06:17:04;;;;;;;9.52;2.00;;;;;;;;;;5014768;28;20044;-63
2022/09/16 06:19:30;;;;;;;9.48;1.63;;;;;;;;;;5014491;28;20041;-63
2022/09/16 06:21:56;;;;;;;12.20;1.88;;;;;;;;;;5014474;28;20026;-63
2022/09/16 06:24:22;;;;;;;12.93;2.33;;;;;;;;;;5014427;28;20021;-63
2022/09/16 06:26:48;;;;;;;6.85;1.33;;;;;;;;;;5014485;28;20093;-63
2022/09/16 06:29:15;;;;;;;7.82;1.65;;;;;;;;;;5014533;28;20029;-63
2022/09/16 06:31:42;;;;;;;6.70;1.55;;;;;;;;;;5013515;28;20134;-63
2022/09/16 06:34:12;;;;;;;9.27;1.70;;;;;;;;;;4999791;28;20025;-63
2022/09/16 06:36:39;;;;;;;13.50;1.75;;;;;;;;;;5012896;28;20486;-63
2022/09/16 06:39:05;;;;;;;6.78;1.33;;;;;;;;;;5014442;28;20076;-63
2022/09/16 06:41:32;;;;;;;4.70;1.42;;;;;;;;;;5011817;28;20898;-63
2022/09/16 06:43:58;;;;;;;8.23;1.58;;;;;;;;;;5007236;28;20040;-63
2022/09/16 06:46:26;;;;;;;5.03;1.40;;;;;;;;;;5003364;28;20108;-63
2022/09/16 06:48:53;;;;;;;5.15;1.40;;;;;;;;;;5003353;28;20029;-63
2022/09/16 06:51:21;;;;;;;9.68;1.33;;;;;;;;;;5008999;28;20034;-63
2022/09/16 06:53:48;;;;;;;9.77;1.35;;;;;;;;;;5008882;28;20118;-63
2022/09/16 06:56:15;;;;;;;6.65;1.48;;;;;;;;;;5000409;28;20044;-63
2022/09/16 06:58:42;;;;;;;9.40;1.63;;;;;;;;;;5006392;28;20087;-63
2022/09/16 07:01:10;;;;;;;8.80;1.60;;;;;;;;;;5008046;28;20030;-63
2022/09/16 07:03:43;;;;;;;7.25;1.40;;;;;;;;;;5004199;28;20025;-63
2022/09/16 07:06:10;;;;;;;11.25;1.95;;;;;;;;;;5009708;28;20483;-63
2022/09/16 07:08:37;;;;;;;8.25;1.00;;;;;;;;;;5011258;28;20168;-63
2022/09/16 07:11:06;;;;;;;11.60;1.20;;;;;;;;;;5010120;28;20038;-63
2022/09/16 07:13:33;;;;;;;6.55;0.95;;;;;;;;;;5025514;28;20666;-63
2022/09/16 07:16:03;;;;;;;5.00;1.10;;;;;;;;;;5008922;28;20555;-63
2022/09/16 07:18:30;;;;;;;7.93;1.10;;;;;;;;;;5000914;28;20052;-63
2022/09/16 07:21:11;;;;;;;4.78;1.00;;;;;;;;;;5011036;28;20151;-63
2022/09/16 07:23:37;;;;;;;4.57;1.40;;;;;;;;;;5010922;28;20026;-63
2022/09/16 07:26:14;;;;;;;4.80;1.50;;;;;;;;;;5009094;28;20018;-63
2022/09/16 07:28:41;;;;;;;5.30;1.33;;;;;;;;;;4999345;28;20029;-63
2022/09/16 07:31:08;;;;;;;9.43;1.20;;;;;;;;;;5007056;28;20022;-63
2022/09/16 07:33:36;;;;;;;4.55;1.00;;;;;;;;;;5008257;28;20041;-63
2022/09/16 07:36:02;;;;;;;5.68;1.45;;;;;;;;;;5005344;28;20087;-63
2022/09/16 07:38:29;;;;;;;9.23;1.73;;;;;;;;;;5004944;28;20058;-63
2022/09/16 07:40:55;;;;;;;5.97;1.02;;;;;;;;;;5003752;28;20030;-63
2022/09/16 07:43:21;;;;;;;5.38;0.93;;;;;;;;;;5005478;28;20030;-63
2022/09/16 07:45:54;;;;;;;4.22;0.98;;;;;;;;;;4998122;28;20045;-63
2022/09/16 07:48:20;;;;;;;9.18;1.30;;;;;;;;;;5010409;28;20068;-63
2022/09/16 07:50:54;;;;;;;3.75;1.17;;;;;;;;;;4997575;28;20029;-63
2022/09/16 07:53:20;;;;;;;8.40;1.63;;;;;;;;;;5007078;28;20044;-63
2022/09/16 07:55:46;;;;;;;2.55;1.00;;;;;;;;;;5006446;28;20034;-63
2022/09/16 07:58:13;;;;;;;4.13;1.00;;;;;;;;;;5008868;28;20030;-63
2022/09/16 08:00:39;;;;;;;8.18;0.90;;;;;;;;;;5002529;28;20037;-63
2022/09/16 08:03:05;;;;;;;3.28;1.00;;;;;;;;;;5004731;28;20080;-63
2022/09/16 08:05:31;;;;;;;5.50;0.85;;;;;;;;;;5005659;28;20049;-63
2022/09/16 08:07:57;;;;;;;5.45;1.13;;;;;;;;;;4995776;28;20026;-63
2022/09/16 08:10:23;;;;;;;6.75;1.02;;;;;;;;;;5001685;28;20088;-63
2022/09/16 08:12:50;;;;;;;5.93;1.25;;;;;;;;;;5005752;28;20497;-63
2022/09/16 08:15:16;;;;;;;5.30;0.82;;;;;;;;;;5005254;28;20033;-63
2022/09/16 08:17:42;;;;;;;5.55;1.10;;;;;;;;;;5012859;28;20034;-63
2022/09/16 08:20:08;;;;;;;6.40;1.10;;;;;;;;;;5003002;28;20026;-63
2022/09/16 08:22:35;;;;;;;2.60;1.08;;;;;;;;;;5008757;28;20038;-63
2022/09/16 08:25:01;;;;;;;8.27;1.02;;;;;;;;;;5001815;28;20489;-63
2022/09/16 08:27:27;;;;;;;7.47;1.10;;;;;;;;;;4999498;28;20423;-63
2022/09/16 08:29:53;;;;;;;6.63;1.30;;;;;;;;;;5000419;28;20037;-63
2022/09/16 08:32:19;;;;;;;5.18;1.33;;;;;;;;;;5009982;28;20379;-63
2022/09/16 08:34:46;;;;;;;6.57;2.00;;;;;;;;;;5001436;28;20402;-63
2022/09/16 08:37:12;;;;;;;4.38;1.23;;;;;;;;;;4999369;28;20045;-63
2022/09/16 08:39:38;;;;;;;5.47;1.30;;;;;;;;;;5004760;28;20495;-63
2022/09/16 08:42:25;;;;;;;11.38;1.27;;;;;;;;;;5004417;28;20061;-63
2022/09/16 08:44:51;;;;;;;4.82;1.00;;;;;;;;;;5001129;28;20494;-63
2022/09/16 08:47:32;;;;;;;6.72;1.35;;;;;;;;;;5001582;28;20054;-63
2022/09/16 08:50:00;;;;;;;3.92;1.50;;;;;;;;;;4997946;28;20026;-63
2022/09/16 08:52:29;;;;;;;3.17;1.20;;;;;;;;;;5006327;28;20109;-63
2022/09/16 08:54:58;;;;;;;2.92;0.80;;;;;;;;;;5002937;28;20045;-63
2022/09/16 08:57:26;;;;;;;4.65;0.98;;;;;;;;;;5003477;28;20018;-63
2022/09/16 08:59:55;;;;;;;5.95;1.25;;;;;;;;;;5003916;28;20058;-63
2022/09/16 09:02:25;;;;;;;4.72;0.93;;;;;;;;;;5000718;28;20030;-63
2022/09/16 09:04:51;;;;;;;6.80;0.88;;;;;;;;;;5003203;28;20482;-63
2022/09/16 09:07:17;;;;;;;10.10;1.55;;;;;;;;;;5003640;28;20018;-63
2022/09/16 09:09:44;;;;;;;9.13;1.30;;;;;;;;;;5000449;28;20449;-63
2022/09/16 09:12:25;;;;;;;7.50;2.00;;;;;;;;;;5003722;28;20040;-63
2022/09/16 09:15:00;;;;;;;6.53;1.98;;;;;;;;;;5002570;28;20042;-63
2022/09/16 09:17:38;;;;;;;8.07;1.42;;;;;;;;;;5000565;28;20092;-63
2022/09/16 09:20:22;;;;;;;7.70;1.80;;;;;;;;;;5003927;28;20120;-63
2022/09/16 09:23:06;;;;;;;8.95;1.20;;;;;;;;;;5005824;28;20050;-63
2022/09/16 09:25:44;;;;;;;9.57;1.52;;;;;;;;;;5004389;28;20049;-63
2022/09/16 09:28:29;;;;;;;9.13;1.63;;;;;;;;;;5003005;28;20038;-63
2022/09/16 09:31:04;;;;;;;4.97;1.35;;;;;;;;;;5007585;28;20032;-63
2022/09/16 09:33:30;;;;;;;11.98;2.08;;;;;;;;;;5002218;28;20414;-63
2022/09/16 09:36:07;;;;;;;6.80;1.90;;;;;;;;;;5000079;28;20015;-63
2022/09/16 09:38:52;;;;;;;10.05;1.90;;;;;;;;;;4999365;28;20032;-63
2022/09/16 09:41:23;;;;;;;6.82;1.10;;;;;;;;;;5002392;28;20308;-63
2022/09/16 09:43:52;;;;;;;13.50;2.03;;;;;;;;;;5005882;28;20541;-63
2022/09/16 09:46:22;;;;;;;6.95;1.40;;;;;;;;;;5000485;28;20018;-63
2022/09/16 09:48:53;;;;;;;5.28;1.58;;;;;;;;;;5009179;28;20178;-63
2022/09/16 09:51:31;;;;;;;5.18;1.50;;;;;;;;;;5001725;28;20021;-63
2022/09/16 09:54:01;;;;;;;6.03;1.40;;;;;;;;;;5005399;28;20034;-63
2022/09/16 09:56:30;;;;;;;10.93;1.35;;;;;;;;;;5007056;28;20030;-64
2022/09/16 09:59:25;;;;;;;6.82;2.22;;;;;;;;;;4996670;28;20022;-63
2022/09/16 10:01:55;;;;;;;4.13;1.20;;;;;;;;;;4994223;28;20038;-63
2022/09/16 10:04:21;;;;;;;7.55;1.23;;;;;;;;;;5009319;28;20032;-63
2022/09/16 10:06:48;;;;;;;2.65;1.08;;;;;;;;;;5002361;28;20030;-63
2022/09/16 10:09:15;;;;;;;5.28;1.30;;;;;;;;;;5002730;28;20046;-63
2022/09/16 10:11:48;;;;;;;6.95;1.48;;;;;;;;;;5004998;28;20065;-63
2022/09/16 10:14:24;;;;;;;6.25;1.38;;;;;;;;;;5004191;28;20022;-63
2022/09/16 10:16:51;;;;;;;7.00;1.27;;;;;;;;;;5010397;28;20026;-63
2022/09/16 10:19:19;;;;;;;7.07;1.33;;;;;;;;;;5002871;28;20030;-64
2022/09/16 10:21:49;;;;;;;4.75;1.23;;;;;;;;;;5003404;28;20125;-63
2022/09/16 10:24:29;;;;;;;7.13;1.30;;;;;;;;;;5013427;28;20022;-63
2022/09/16 10:26:56;;;;;;;4.50;1.10;;;;;;;;;;5006533;28;20022;-64
2022/09/16 10:29:22;;;;;;;3.13;1.10;;;;;;;;;;5002710;28;20030;-64
2022/09/16 10:31:48;;;;;;;6.30;1.33;;;;;;;;;;5004435;28;20037;-64
2022/09/16 10:34:20;;;;;;;5.13;1.00;;;;;;;;;;5007749;28;20027;-63
2022/09/16 10:36:46;;;;;;;3.10;1.02;;;;;;;;;;5007267;28;20105;-64
2022/09/16 10:39:23;;;;;;;6.53;1.10;;;;;;;;;;5013768;28;20060;-64
2022/09/16 10:41:49;;;;;;;4.47;1.73;;;;;;;;;;5003495;28;20045;-64
2022/09/16 10:44:27;;;;;;;5.07;1.73;;;;;;;;;;5003747;28;20037;-64
2022/09/16 10:46:55;;;;;;;4.40;1.13;;;;;;;;;;5001877;28;20138;-64
2022/09/16 10:49:25;;;;;;;7.18;1.23;;;;;;;;;;5002354;28;20026;-64
2022/09/16 10:51:51;;;;;;;7.55;1.55;;;;;;;;;;5001950;28;20030;-64
2022/09/16 10:54:27;;;;;;;8.32;1.60;;;;;;;;;;5007930;28;20088;-64
2022/09/16 10:56:54;;;;;;;8.10;1.83;;;;;;;;;;5009424;28;20021;-64
2022/09/16 10:59:20;;;;;;;12.38;1.52;;;;;;;;;;5010127;28;20030;-64
2022/09/16 11:02:05;;;;;;;8.30;1.48;;;;;;;;;;5010682;28;20022;-64
2022/09/16 11:04:50;;;;;;;6.05;1.90;;;;;;;;;;5006807;28;20018;-64
2022/09/16 11:07:18;;;;;;;3.78;1.30;;;;;;;;;;5008861;28;20037;-63
2022/09/16 11:09:58;;;;;;;5.03;1.45;;;;;;;;;;5005355;28;20046;-63
2022/09/16 11:12:25;;;;;;;5.82;1.60;;;;;;;;;;5004988;28;20056;-64
2022/09/16 11:15:00;;;;;;;7.20;1.40;;;;;;;;;;5012197;28;20069;-64
2022/09/16 11:17:32;;;;;;;7.82;1.33;;;;;;;;;;5001096;28;20030;-64
2022/09/16 11:19:58;;;;;;;7.67;1.33;;;;;;;;;;5004004;28;20116;-64
2022/09/16 11:22:37;;;;;;;7.82;1.67;;;;;;;;;;5010907;28;20484;-64
2022/09/16 11:25:03;;;;;;;8.63;1.90;;;;;;;;;;5004572;28;20026;-64
2022/09/16 11:27:35;;;;;;;7.32;1.25;;;;;;;;;;5007151;28;20034;-64
2022/09/16 11:30:10;;;;;;;8.07;1.50;;;;;;;;;;5007947;28;20509;-64
2022/09/16 11:32:45;;;;;;;7.07;1.85;;;;;;;;;;5009692;28;20542;-65
2022/09/16 11:35:16;;;;;;;7.10;1.35;;;;;;;;;;5005070;28;20041;-65
2022/09/16 11:37:51;;;;;;;4.47;1.20;;;;;;;;;;5002599;28;20471;-64
2022/09/16 11:40:20;;;;;;;9.48;1.65;;;;;;;;;;5001451;28;20034;-64
2022/09/16 11:43:11;;;;;;;14.77;1.83;;;;;;;;;;5003774;28;20025;-65
2022/09/16 11:45:43;;;;;;;7.57;1.77;;;;;;;;;;5002945;28;20029;-65
2022/09/16 11:48:24;;;;;;;8.95;1.73;;;;;;;;;;5005076;28;20040;-64
2022/09/16 11:51:02;;;;;;;6.07;1.55;;;;;;;;;;4999252;28;20026;-64
2022/09/16 11:53:31;;;;;;;4.88;1.55;;;;;;;;;;5007847;28;20034;-65
2022/09/16 11:56:06;;;;;;;7.82;1.60;;;;;;;;;;5006299;28;20029;-65
2022/09/16 11:58:36;;;;;;;5.47;2.00;;;;;;;;;;5004698;28;20060;-65
2022/09/16 12:01:12;;;;;;;9.38;2.10;;;;;;;;;;5007873;28;20041;-65
2022/09/16 12:03:46;;;;;;;6.25;1.58;;;;;;;;;;5002756;28;20042;-65
2022/09/16 12:06:17;;;;;;;6.78;1.40;;;;;;;;;;5006023;28;20034;-65
2022/09/16 12:08:54;;;;;;;7.07;2.28;;;;;;;;;;5001793;28;20076;-65
2022/09/16 12:11:39;;;;;;;7.22;1.50;;;;;;;;;;5006687;28;20043;-65
2022/09/16 12:14:13;;;;;;;9.23;1.75;;;;;;;;;;5011715;28;20030;-65
2022/09/16 12:16:42;;;;;;;4.82;1.35;;;;;;;;;;5000849;28;20490;-65
2022/09/16 12:19:15;;;;;;;9.77;1.55;;;;;;;;;;4999510;28;20029;-65
2022/09/16 12:21:47;;;;;;;9.77;1.15;;;;;;;;;;5004329;28;20080;-65
2022/09/16 12:24:23;;;;;;;5.20;1.13;;;;;;;;;;4998769;28;20040;-64
2022/09/16 12:26:52;;;;;;;4.93;1.42;;;;;;;;;;5001878;28;20791;-65
2022/09/16 12:29:25;;;;;;;7.95;1.85;;;;;;;;;;5000563;28;20027;-65
2022/09/16 12:31:55;;;;;;;1.92;0.90;;;;;;;;;;5000633;28;20478;-65
2022/09/16 12:34:21;;;;;;;9.70;1.25;;;;;;;;;;4997980;28;20035;-65
2022/09/16 12:37:07;;;;;;;6.05;1.13;;;;;;;;;;5001798;28;20113;-65
2022/09/16 12:39:33;;;;;;;7.35;0.93;;;;;;;;;;5004812;28;20037;-65
2022/09/16 12:42:25;;;;;;;10.30;1.50;;;;;;;;;;4999477;28;20056;-65
2022/09/16 12:44:57;;;;;;;9.63;1.75;;;;;;;;;;4978996;28;20042;-65
2022/09/16 12:47:42;;;;;;;5.77;1.30;;;;;;;;;;4985381;28;20022;-65
2022/09/16 12:50:35;;;;;;;5.85;1.48;;;;;;;;;;4980564;28;20528;-64
2022/09/16 12:53:20;;;;;;;3.90;0.80;;;;;;;;;;4983213;28;20034;-64
2022/09/16 12:56:05;;;;;;;2.60;0.82;;;;;;;;;;4982038;28;20593;-65
2022/09/16 12:58:37;;;;;;;3.50;0.90;;;;;;;;;;4984199;28;20104;-64
2022/09/16 13:01:15;;;;;;;4.53;1.00;;;;;;;;;;4981949;28;20034;-64
2022/09/16 13:03:43;;;;;;;7.38;1.20;;;;;;;;;;4977288;28;20286;-64
2022/09/16 13:06:35;;;;;;;2.35;1.02;;;;;;;;;;4982788;28;20081;-65
2022/09/16 13:09:20;;;;;;;6.28;1.40;;;;;;;;;;4975076;28;20038;-64
2022/09/16 13:11:53;;;;;;;6.13;0.93;;;;;;;;;;4986184;28;20053;-65
2022/09/16 13:14:28;;;;;;;3.38;0.82;;;;;;;;;;4983388;28;20030;-65
2022/09/16 13:16:56;;;;;;;2.85;0.90;;;;;;;;;;4982495;28;20505;-64
2022/09/16 13:19:22;;;;;;;3.22;0.68;;;;;;;;;;4986535;28;20038;-65
2022/09/16 13:21:48;;;;;;;3.70;0.65;;;;;;;;;;4995756;28;20129;-64
2022/09/16 13:24:27;;;;;;;5.85;0.70;;;;;;;;;;5001380;28;20029;-64
2022/09/16 13:26:54;;;;;;;3.60;0.63;;;;;;;;;;5001552;28;20030;-64
2022/09/16 13:29:24;;;;;;;6.72;0.80;;;;;;;;;;5006613;28;20076;-64
2022/09/16 13:31:50;;;;;;;3.92;1.85;;;;;;;;;;5001145;28;20092;-64
2022/09/16 13:34:17;;;;;;;2.50;1.00;;;;;;;;;;5006276;28;20040;-64
2022/09/16 13:36:43;;;;;;;4.18;1.00;;;;;;;;;;5008755;28;20029;-64
2022/09/16 13:39:11;;;;;;;1.20;0.93;;;;;;;;;;5002976;28;20038;-64
2022/09/16 13:41:39;;;;;;;3.75;1.00;;;;;;;;;;5001068;28;20183;-64
2022/09/16 13:44:24;;;;;;;4.18;0.65;;;;;;;;;;5002905;28;20034;-64
2022/09/16 13:46:50;;;;;;;7.18;1.90;;;;;;;;;;5005174;28;20044;-64
2022/09/16 13:49:18;;;;;;;3.35;0.85;;;;;;;;;;5005885;28;20025;-64
2022/09/16 13:51:46;;;;;;;6.45;0.93;;;;;;;;;;5013459;28;20018;-65
2022/09/16 13:54:25;;;;;;;9.68;1.60;;;;;;;;;;5007199;28;20060;-64
2022/09/16 13:57:10;;;;;;;2.95;0.80;;;;;;;;;;5006957;28;20034;-64
2022/09/16 13:59:53;;;;;;;5.50;1.88;;;;;;;;;;5003061;28;20029;-64
2022/09/16 14:02:26;;;;;;;5.63;0.80;;;;;;;;;;5004058;28;20132;-64
2022/09/16 14:04:58;;;;;;;4.38;0.90;;;;;;;;;;5010794;28;20041;-64
2022/09/16 14:07:53;;;;;;;11.27;0.90;;;;;;;;;;5008280;28;20018;-65
2022/09/16 14:10:19;;;;;;;1.27;0.57;;;;;;;;;;4962249;28;20046;-64
2022/09/16 14:13:09;;;;;;;7.45;1.00;;;;;;;;;;4968701;28;20117;-64
2022/09/16 14:15:36;;;;;;;1.77;0.60;;;;;;;;;;4983279;28;20407;-64
2022/09/16 14:18:03;;;;;;;4.28;0.80;;;;;;;;;;4966505;28;20061;-65
2022/09/16 14:20:30;;;;;;;4.90;0.93;;;;;;;;;;4967410;28;20113;-64
2022/09/16 14:23:03;;;;;;;7.63;1.25;;;;;;;;;;4966125;28;20095;-65
2022/09/16 14:25:31;;;;;;;2.70;0.82;;;;;;;;;;4968439;28;20039;-64
2022/09/16 14:28:07;;;;;;;1.88;0.90;;;;;;;;;;4971589;28;20084;-65
2022/09/16 14:30:33;;;;;;;6.57;1.20;;;;;;;;;;4963758;28;20034;-64
2022/09/16 14:33:01;;;;;;;2.55;0.90;;;;;;;;;;4968495;28;20042;-64
2022/09/16 14:35:27;;;;;;;2.30;0.93;;;;;;;;;;4970880;28;20035;-64
2022/09/16 14:37:55;;;;;;;3.85;1.10;;;;;;;;;;4970354;28;20082;-64
2022/09/16 14:40:22;;;;;;;3.92;0.82;;;;;;;;;;4971369;28;20113;-64
2022/09/16 14:42:53;;;;;;;5.68;1.30;;;;;;;;;;4966533;28;20085;-64
2022/09/16 14:45:20;;;;;;;5.00;1.23;;;;;;;;;;4973885;28;20202;-64
2022/09/16 14:47:47;;;;;;;4.68;1.20;;;;;;;;;;5004417;28;20402;-64
2022/09/16 14:50:15;;;;;;;3.92;1.00;;;;;;;;;;5012088;28;20032;-64
2022/09/16 14:52:52;;;;;;;3.20;0.98;;;;;;;;;;5006541;28;20034;-64
2022/09/16 14:55:22;;;;;;;4.60;1.27;;;;;;;;;;5008559;28;20057;-64
2022/09/16 14:57:48;;;;;;;3.38;0.93;;;;;;;;;;5009493;28;20030;-64